createdAt,value
2024-04-06T00:00:16.971Z,95276.00
2024-04-06T00:01:17.086Z,95280.00
2024-04-06T00:02:17.144Z,95278.00
2024-04-06T00:03:17.229Z,95277.00
2024-04-06T00:04:17.326Z,95277.00
2024-04-06T00:05:17.420Z,95280.00
2024-04-06T00:06:17.526Z,95277.00
2024-04-06T00:07:17.582Z,95282.00
2024-04-06T00:08:18.262Z,95276.00
2024-04-06T00:09:17.784Z,95280.00
2024-04-06T00:10:17.870Z,95280.00
2024-04-06T00:11:17.929Z,95279.00
2024-04-06T00:12:17.980Z,95279.00
2024-04-06T00:13:18.062Z,95283.00
2024-04-06T00:14:18.172Z,95283.00
2024-04-06T00:15:18.263Z,95284.00
2024-04-06T00:16:18.334Z,95284.00
2024-04-06T00:17:18.468Z,95281.00
2024-04-06T00:18:18.535Z,95287.00
2024-04-06T00:19:18.631Z,95286.00
2024-04-06T00:20:18.696Z,95282.00
2024-04-06T00:21:18.836Z,95279.00
2024-04-06T00:22:18.870Z,95282.00
2024-04-06T00:23:18.960Z,95284.00
2024-04-06T00:24:19.081Z,95277.00
2024-04-06T00:25:19.137Z,95281.00
2024-04-06T00:26:19.312Z,95285.00
2024-04-06T00:27:19.328Z,95284.00
2024-04-06T00:28:19.352Z,95285.00
2024-04-06T00:29:19.474Z,95283.00
2024-04-06T00:30:19.582Z,95284.00
2024-04-06T00:31:19.675Z,95286.00
2024-04-06T00:32:19.710Z,95287.00
2024-04-06T00:33:19.796Z,95284.00
2024-04-06T00:34:19.905Z,95287.00
2024-04-06T00:35:19.955Z,95286.00
2024-04-06T00:36:20.076Z,95289.00
2024-04-06T00:37:20.170Z,95285.00
2024-04-06T00:38:20.202Z,95281.00
2024-04-06T00:39:20.284Z,95279.00
2024-04-06T00:40:20.360Z,95283.00
2024-04-06T00:41:20.496Z,95284.00
2024-04-06T00:42:20.564Z,95290.00
2024-04-06T00:43:20.637Z,95289.00
2024-04-06T00:44:20.754Z,95288.00
2024-04-06T00:45:20.864Z,95288.00
2024-04-06T00:46:20.874Z,95293.00
2024-04-06T00:47:20.959Z,95294.00
2024-04-06T00:48:21.124Z,95293.00
2024-04-06T00:49:21.139Z,95291.00
2024-04-06T00:50:21.277Z,95293.00
2024-04-06T00:51:21.308Z,95293.00
2024-04-06T00:52:21.386Z,95291.00
2024-04-06T00:53:21.582Z,95293.00
2024-04-06T00:54:21.587Z,95300.00
2024-04-06T00:55:21.639Z,95300.00
2024-04-06T00:56:21.727Z,95298.00
2024-04-06T00:57:21.803Z,95299.00
2024-04-06T00:58:21.876Z,95298.00
2024-04-06T00:59:21.972Z,95299.00
2024-04-06T01:00:22.026Z,95296.00
2024-04-06T01:01:24.334Z,95298.00
2024-04-06T01:02:22.169Z,95303.00
2024-04-06T01:03:22.209Z,95305.00
2024-04-06T01:04:22.344Z,95309.00
2024-04-06T01:05:22.418Z,95308.00
2024-04-06T01:06:22.474Z,95310.00
2024-04-06T01:07:22.561Z,95311.00
2024-04-06T01:08:22.662Z,95311.00
2024-04-06T01:09:23.223Z,95313.00
2024-04-06T01:10:22.737Z,95307.00
2024-04-06T01:11:22.858Z,95311.00
2024-04-06T01:12:22.873Z,95312.00
2024-04-06T01:13:22.867Z,95305.00
2024-04-06T01:14:22.973Z,95308.00
2024-04-06T01:15:22.956Z,95307.00
2024-04-06T01:16:23.016Z,95310.00
2024-04-06T01:17:23.056Z,95313.00
2024-04-06T01:18:23.073Z,95315.00
2024-04-06T01:19:23.134Z,95318.00
2024-04-06T01:20:23.156Z,95319.00
2024-04-06T01:21:23.196Z,95319.00
2024-04-06T01:22:23.263Z,95323.00
2024-04-06T01:23:23.360Z,95317.00
2024-04-06T01:24:23.312Z,95322.00
2024-04-06T01:25:23.385Z,95316.00
2024-04-06T01:26:23.459Z,95315.00
2024-04-06T01:27:23.537Z,95325.00
2024-04-06T01:28:23.648Z,95320.00
2024-04-06T01:29:23.808Z,95320.00
2024-04-06T01:30:23.852Z,95314.00
2024-04-06T01:31:23.880Z,95321.00
2024-04-06T01:32:24.038Z,95322.00
2024-04-06T01:33:24.046Z,95320.00
2024-04-06T01:34:24.127Z,95320.00
2024-04-06T01:35:24.243Z,95322.00
2024-04-06T01:36:24.317Z,95321.00
2024-04-06T01:37:24.379Z,95316.00
2024-04-06T01:38:24.473Z,95319.00
2024-04-06T01:39:24.541Z,95319.00
2024-04-06T01:40:24.678Z,95324.00
2024-04-06T01:41:24.691Z,95327.00
2024-04-06T01:42:24.768Z,95325.00
2024-04-06T01:43:24.884Z,95322.00
2024-04-06T01:44:24.961Z,95324.00
2024-04-06T01:45:25.016Z,95323.00
2024-04-06T01:46:25.122Z,95324.00
2024-04-06T01:47:25.258Z,95319.00
2024-04-06T01:48:25.278Z,95310.00
2024-04-06T01:49:25.384Z,95328.00
2024-04-06T01:50:25.449Z,95334.00
2024-04-06T01:51:25.536Z,95332.00
2024-04-06T01:52:25.659Z,95331.00
2024-04-06T01:53:25.847Z,95326.00
2024-04-06T01:54:25.802Z,95329.00
2024-04-06T01:55:25.892Z,95323.00
2024-04-06T01:56:26.001Z,95326.00
2024-04-06T01:57:26.059Z,95327.00
2024-04-06T01:58:26.195Z,95330.00
2024-04-06T01:59:26.246Z,95332.00
2024-04-06T02:00:26.286Z,95335.00
2024-04-06T02:01:26.442Z,95330.00
2024-04-06T02:02:26.527Z,95337.00
2024-04-06T02:03:26.570Z,95337.00
2024-04-06T02:04:26.659Z,95339.00
2024-04-06T02:05:26.698Z,95338.00
2024-04-06T02:06:26.833Z,95340.00
2024-04-06T02:07:26.886Z,95343.00
2024-04-06T02:08:26.976Z,95343.00
2024-04-06T02:09:27.036Z,95339.00
2024-04-06T02:10:27.133Z,95341.00
2024-04-06T02:11:27.363Z,95335.00
2024-04-06T02:12:27.286Z,95329.00
2024-04-06T02:13:27.398Z,95339.00
2024-04-06T02:14:27.527Z,95343.00
2024-04-06T02:15:27.551Z,95342.00
2024-04-06T02:16:27.591Z,95342.00
2024-04-06T02:17:27.715Z,95345.00
2024-04-06T02:18:27.728Z,95344.00
2024-04-06T02:19:27.847Z,95341.00
2024-04-06T02:20:27.932Z,95340.00
2024-04-06T02:21:27.984Z,95338.00
2024-04-06T02:22:28.074Z,95341.00
2024-04-06T02:23:28.217Z,95337.00
2024-04-06T02:24:28.240Z,95339.00
2024-04-06T02:25:28.297Z,95335.00
2024-04-06T02:26:28.424Z,95336.00
2024-04-06T02:27:28.460Z,95342.00
2024-04-06T02:28:28.572Z,95342.00
2024-04-06T02:29:28.645Z,95346.00
2024-04-06T02:30:28.700Z,95344.00
2024-04-06T02:31:28.790Z,95346.00
2024-04-06T02:32:28.917Z,95344.00
2024-04-06T02:33:29.016Z,95345.00
2024-04-06T02:34:29.009Z,95347.00
2024-04-06T02:35:29.140Z,95344.00
2024-04-06T02:36:29.184Z,95353.00
2024-04-06T02:37:29.239Z,95353.00
2024-04-06T02:38:29.323Z,95357.00
2024-04-06T02:39:29.412Z,95357.00
2024-04-06T02:40:29.496Z,95357.00
2024-04-06T02:41:29.575Z,95361.00
2024-04-06T02:42:29.641Z,95362.00
2024-04-06T02:43:29.749Z,95359.00
2024-04-06T02:44:29.833Z,95358.00
2024-04-06T02:45:29.876Z,95359.00
2024-04-06T02:46:29.966Z,95363.00
2024-04-06T02:47:30.053Z,95365.00
2024-04-06T02:48:30.090Z,95367.00
2024-04-06T02:49:30.202Z,95369.00
2024-04-06T02:50:30.280Z,95368.00
2024-04-06T02:51:30.365Z,95367.00
2024-04-06T02:52:30.410Z,95366.00
2024-04-06T02:53:30.590Z,95367.00
2024-04-06T02:54:30.588Z,95368.00
2024-04-06T02:55:30.655Z,95369.00
2024-04-06T02:56:30.771Z,95372.00
2024-04-06T02:57:30.820Z,95371.00
2024-04-06T02:58:30.931Z,95374.00
2024-04-06T02:59:31.020Z,95376.00
2024-04-06T03:00:31.054Z,95378.00
2024-04-06T03:01:31.094Z,95380.00
2024-04-06T03:02:31.241Z,95382.00
2024-04-06T03:03:31.273Z,95382.00
2024-04-06T03:04:31.378Z,95385.00
2024-04-06T03:05:31.464Z,95383.00
2024-04-06T03:06:31.531Z,95383.00
2024-04-06T03:07:31.602Z,95381.00
2024-04-06T03:08:31.690Z,95383.00
2024-04-06T03:09:31.710Z,95384.00
2024-04-06T03:10:31.793Z,95386.00
2024-04-06T03:11:31.897Z,95387.00
2024-04-06T03:12:31.946Z,95390.00
2024-04-06T03:13:32.050Z,95386.00
2024-04-06T03:14:32.173Z,95385.00
2024-04-06T03:15:32.201Z,95385.00
2024-04-06T03:16:32.325Z,95384.00
2024-04-06T03:17:32.419Z,95387.00
2024-04-06T03:18:32.439Z,95387.00
2024-04-06T03:19:32.548Z,95389.00
2024-04-06T03:20:32.610Z,95386.00
2024-04-06T03:21:34.269Z,95388.00
2024-04-06T03:22:32.727Z,95389.00
2024-04-06T03:23:32.812Z,95389.00
2024-04-06T03:24:32.845Z,95391.00
2024-04-06T03:25:32.850Z,95391.00
2024-04-06T03:26:32.897Z,95392.00
2024-04-06T03:27:32.982Z,95391.00
2024-04-06T03:28:32.983Z,95390.00
2024-04-06T03:29:33.053Z,95390.00
2024-04-06T03:30:33.092Z,95389.00
2024-04-06T03:31:33.138Z,95389.00
2024-04-06T03:32:33.212Z,95391.00
2024-04-06T03:33:33.260Z,95390.00
2024-04-06T03:34:33.327Z,95389.00
2024-04-06T03:35:33.452Z,95391.00
2024-04-06T03:36:33.472Z,95389.00
2024-04-06T03:37:33.556Z,95390.00
2024-04-06T03:38:33.668Z,95391.00
2024-04-06T03:39:33.770Z,95392.00
2024-04-06T03:40:33.802Z,95393.00
2024-04-06T03:41:33.888Z,95392.00
2024-04-06T03:42:33.959Z,95391.00
2024-04-06T03:43:34.052Z,95392.00
2024-04-06T03:44:34.253Z,95391.00
2024-04-06T03:45:34.180Z,95391.00
2024-04-06T03:46:34.290Z,95392.00
2024-04-06T03:47:34.426Z,95394.00
2024-04-06T03:48:34.447Z,95393.00
2024-04-06T03:49:34.539Z,95393.00
2024-04-06T03:50:34.660Z,95393.00
2024-04-06T03:51:34.724Z,95393.00
2024-04-06T03:52:34.766Z,95391.00
2024-04-06T03:53:34.917Z,95394.00
2024-04-06T03:54:34.940Z,95390.00
2024-04-06T03:55:34.991Z,95392.00
2024-04-06T03:56:35.222Z,95391.00
2024-04-06T03:57:35.130Z,95392.00
2024-04-06T03:58:35.166Z,95393.00
2024-04-06T03:59:35.225Z,95395.00
2024-04-06T04:00:35.236Z,95394.00
2024-04-06T04:01:35.282Z,95394.00
2024-04-06T04:02:35.336Z,95397.00
2024-04-06T04:03:35.333Z,95398.00
2024-04-06T04:04:35.405Z,95397.00
2024-04-06T04:05:35.431Z,95400.00
2024-04-06T04:06:35.487Z,95401.00
2024-04-06T04:07:35.530Z,95400.00
2024-04-06T04:08:35.601Z,95402.00
2024-04-06T04:09:37.692Z,95404.00
2024-04-06T04:10:35.614Z,95401.00
2024-04-06T04:11:35.650Z,95401.00
2024-04-06T04:12:35.633Z,95404.00
2024-04-06T04:13:35.596Z,95402.00
2024-04-06T04:14:35.653Z,95404.00
2024-04-06T04:15:35.586Z,95401.00
2024-04-06T04:16:35.597Z,95403.00
2024-04-06T04:17:35.694Z,95406.00
2024-04-06T04:18:35.604Z,95406.00
2024-04-06T04:19:35.606Z,95407.00
2024-04-06T04:20:35.685Z,95406.00
2024-04-06T04:21:35.642Z,95407.00
2024-04-06T04:22:35.650Z,95407.00
2024-04-06T04:23:35.629Z,95409.00
2024-04-06T04:24:35.613Z,95410.00
2024-04-06T04:25:35.615Z,95412.00
2024-04-06T04:26:35.673Z,95414.00
2024-04-06T04:27:35.667Z,95414.00
2024-04-06T04:28:35.602Z,95416.00
2024-04-06T04:29:35.678Z,95418.00
2024-04-06T04:30:35.614Z,95417.00
2024-04-06T04:31:35.655Z,95421.00
2024-04-06T04:32:35.731Z,95422.00
2024-04-06T04:33:35.619Z,95423.00
2024-04-06T04:34:35.670Z,95419.00
2024-04-06T04:35:35.720Z,95422.00
2024-04-06T04:36:35.696Z,95422.00
2024-04-06T04:37:43.019Z,95428.00
2024-04-06T04:38:42.975Z,95428.00
2024-04-06T04:39:43.029Z,95426.00
2024-04-06T04:40:43.018Z,95427.00
2024-04-06T04:41:42.987Z,95429.00
2024-04-06T04:42:42.996Z,95426.00
2024-04-06T04:43:42.972Z,95429.00
2024-04-06T04:44:46.408Z,95427.00
2024-04-06T04:45:44.008Z,95423.00
2024-04-06T04:46:43.037Z,95424.00
2024-04-06T04:47:43.052Z,95426.00
2024-04-06T04:48:43.029Z,95430.00
2024-04-06T04:49:43.057Z,95430.00
2024-04-06T04:50:43.002Z,95429.00
2024-04-06T04:51:43.036Z,95432.00
2024-04-06T04:52:43.085Z,95429.00
2024-04-06T04:53:43.077Z,95432.00
2024-04-06T04:54:43.061Z,95432.00
2024-04-06T04:55:43.032Z,95429.00
2024-04-06T04:56:43.041Z,95432.00
2024-04-06T04:57:43.101Z,95432.00
2024-04-06T04:58:43.155Z,95433.00
2024-04-06T04:59:43.279Z,95432.00
2024-04-06T05:00:43.438Z,95434.00
2024-04-06T05:01:43.450Z,95434.00
2024-04-06T05:02:43.490Z,95437.00
2024-04-06T05:03:43.786Z,95437.00
2024-04-06T05:04:43.853Z,95437.00
2024-04-06T05:05:43.806Z,95439.00
2024-04-06T05:06:43.861Z,95439.00
2024-04-06T05:07:43.891Z,95440.00
2024-04-06T05:08:43.955Z,95442.00
2024-04-06T05:09:44.028Z,95441.00
2024-04-06T05:10:44.110Z,95444.00
2024-04-06T05:11:44.189Z,95441.00
2024-04-06T05:12:44.268Z,95445.00
2024-04-06T05:13:44.340Z,95444.00
2024-04-06T05:14:44.431Z,95445.00
2024-04-06T05:15:44.508Z,95442.00
2024-04-06T05:16:44.582Z,95444.00
2024-04-06T05:17:44.673Z,95447.00
2024-04-06T05:18:44.741Z,95448.00
2024-04-06T05:19:44.839Z,95446.00
2024-04-06T05:20:44.952Z,95449.00
2024-04-06T05:21:45.027Z,95449.00
2024-04-06T05:22:45.084Z,95448.00
2024-04-06T05:23:45.175Z,95448.00
2024-04-06T05:24:45.261Z,95448.00
2024-04-06T05:25:45.349Z,95449.00
2024-04-06T05:26:45.397Z,95451.00
2024-04-06T05:27:45.476Z,95452.00
2024-04-06T05:28:45.539Z,95451.00
2024-04-06T05:29:45.643Z,95452.00
2024-04-06T05:30:45.716Z,95451.00
2024-04-06T05:31:45.783Z,95451.00
2024-04-06T05:32:45.898Z,95449.00
2024-04-06T05:33:45.947Z,95453.00
2024-04-06T05:34:46.078Z,95455.00
2024-04-06T05:35:46.116Z,95457.00
2024-04-06T05:36:46.201Z,95454.00
2024-04-06T05:37:46.292Z,95458.00
2024-04-06T05:38:46.450Z,95458.00
2024-04-06T05:39:46.462Z,95455.00
2024-04-06T05:40:46.560Z,95455.00
2024-04-06T05:41:46.617Z,95453.00
2024-04-06T05:42:46.675Z,95453.00
2024-04-06T05:43:46.745Z,95453.00
2024-04-06T05:44:46.872Z,95456.00
2024-04-06T05:45:46.927Z,95456.00
2024-04-06T05:46:47.027Z,95455.00
2024-04-06T05:47:47.095Z,95454.00
2024-04-06T05:48:47.192Z,95453.00
2024-04-06T05:49:47.273Z,95451.00
2024-04-06T05:50:47.329Z,95451.00
2024-04-06T05:51:47.411Z,95454.00
2024-04-06T05:52:47.519Z,95456.00
2024-04-06T05:53:47.586Z,95460.00
2024-04-06T05:54:47.690Z,95462.00
2024-04-06T05:55:47.749Z,95461.00
2024-04-06T05:56:47.795Z,95458.00
2024-04-06T05:57:47.957Z,95458.00
2024-04-06T05:58:47.965Z,95454.00
2024-04-06T05:59:48.080Z,95449.00
2024-04-06T06:00:48.128Z,95445.00
2024-04-06T06:01:48.218Z,95446.00
2024-04-06T06:02:48.304Z,95447.00
2024-04-06T06:03:48.347Z,95443.00
2024-04-06T06:04:48.463Z,95444.00
2024-04-06T06:05:48.564Z,95445.00
2024-04-06T06:06:48.579Z,95445.00
2024-04-06T06:07:48.683Z,95444.00
2024-04-06T06:08:48.754Z,95442.00
2024-04-06T06:09:48.829Z,95441.00
2024-04-06T06:10:48.911Z,95440.00
2024-04-06T06:11:48.995Z,95437.00
2024-04-06T06:12:49.048Z,95437.00
2024-04-06T06:13:49.149Z,95435.00
2024-04-06T06:14:49.240Z,95436.00
2024-04-06T06:15:49.321Z,95437.00
2024-04-06T06:16:49.429Z,95437.00
2024-04-06T06:17:49.496Z,95439.00
2024-04-06T06:18:49.550Z,95439.00
2024-04-06T06:19:49.625Z,95440.00
2024-04-06T06:20:49.692Z,95439.00
2024-04-06T06:21:49.778Z,95436.00
2024-04-06T06:22:49.849Z,95436.00
2024-04-06T06:23:49.970Z,95437.00
2024-04-06T06:24:50.159Z,95436.00
2024-04-06T06:25:50.105Z,95438.00
2024-04-06T06:26:50.180Z,95438.00
2024-04-06T06:27:50.255Z,95442.00
2024-04-06T06:28:51.134Z,95439.00
2024-04-06T06:29:50.406Z,95439.00
2024-04-06T06:30:50.450Z,95441.00
2024-04-06T06:31:50.492Z,95438.00
2024-04-06T06:32:50.518Z,95439.00
2024-04-06T06:33:50.556Z,95440.00
2024-04-06T06:34:50.603Z,95444.00
2024-04-06T06:37:53.526Z,95444.00
2024-04-06T06:40:50.650Z,95442.00
2024-04-06T06:41:50.630Z,95442.00
2024-04-06T06:42:50.631Z,95442.00
2024-04-06T06:43:50.640Z,95440.00
2024-04-06T06:44:50.642Z,95440.00
2024-04-06T06:45:50.639Z,95441.00
2024-04-06T06:46:50.656Z,95442.00
2024-04-06T06:47:50.654Z,95443.00
2024-04-06T06:48:50.643Z,95444.00
2024-04-06T06:49:50.665Z,95445.00
2024-04-06T06:50:50.660Z,95445.00
2024-04-06T06:51:50.658Z,95446.00
2024-04-06T06:52:50.658Z,95447.00
2024-04-06T06:53:50.668Z,95451.00
2024-04-06T06:54:50.666Z,95452.00
2024-04-06T06:55:50.656Z,95453.00
2024-04-06T06:56:50.659Z,95456.00
2024-04-06T06:57:50.666Z,95453.00
2024-04-06T06:58:50.709Z,95457.00
2024-04-06T07:00:50.691Z,95452.00
2024-04-06T07:01:50.662Z,95454.00
2024-04-06T07:02:50.657Z,95452.00
2024-04-06T07:03:50.663Z,95454.00
2024-04-06T07:04:50.679Z,95455.00
2024-04-06T07:05:50.692Z,95455.00
2024-04-06T07:07:50.691Z,95453.00
2024-04-06T07:09:02.581Z,95452.00
2024-04-06T07:09:51.715Z,95451.00
2024-04-06T07:10:50.670Z,95449.00
2024-04-06T07:11:50.716Z,95450.00
2024-04-06T07:12:50.699Z,95448.00
2024-04-06T07:13:50.691Z,95447.00
2024-04-06T07:14:50.716Z,95445.00
2024-04-06T07:15:50.712Z,95445.00
2024-04-06T07:16:50.691Z,95445.00
2024-04-06T07:17:50.699Z,95445.00
2024-04-06T07:18:50.759Z,95446.00
2024-04-06T07:19:50.923Z,95441.00
2024-04-06T07:20:50.949Z,95439.00
2024-04-06T07:21:51.066Z,95435.00
2024-04-06T07:22:51.097Z,95434.00
2024-04-06T07:23:51.166Z,95434.00
2024-04-06T07:24:51.284Z,95435.00
2024-04-06T07:25:51.351Z,95434.00
2024-04-06T07:26:51.432Z,95436.00
2024-04-06T07:27:51.544Z,95436.00
2024-04-06T07:28:51.616Z,95436.00
2024-04-06T07:29:51.726Z,95435.00
2024-04-06T07:30:51.773Z,95434.00
2024-04-06T07:31:51.977Z,95433.00
2024-04-06T07:32:54.240Z,95432.00
2024-04-06T07:33:51.995Z,95432.00
2024-04-06T07:34:52.005Z,95432.00
2024-04-06T07:35:52.011Z,95432.00
2024-04-06T07:36:51.985Z,95437.00
2024-04-06T07:37:51.979Z,95434.00
2024-04-06T07:39:52.059Z,95436.00
2024-04-06T07:40:52.002Z,95436.00
2024-04-06T07:41:52.006Z,95437.00
2024-04-06T07:42:52.029Z,95438.00
2024-04-06T07:43:52.072Z,95441.00
2024-04-06T07:44:52.030Z,95442.00
2024-04-06T07:45:52.045Z,95443.00
2024-04-06T07:46:52.015Z,95445.00
2024-04-06T07:47:52.026Z,95445.00
2024-04-06T07:48:52.054Z,95446.00
2024-04-06T07:49:52.051Z,95447.00
2024-04-06T07:50:52.000Z,95446.00
2024-04-06T07:51:52.024Z,95445.00
2024-04-06T07:52:53.679Z,95444.00
2024-04-06T07:53:52.032Z,95442.00
2024-04-06T07:54:52.036Z,95443.00
2024-04-06T07:55:52.052Z,95441.00
2024-04-06T07:56:52.058Z,95442.00
2024-04-06T07:57:52.028Z,95441.00
2024-04-06T07:58:52.029Z,95445.00
2024-04-06T07:59:54.589Z,95442.00
2024-04-06T08:00:52.052Z,95443.00
2024-04-06T08:01:52.038Z,95441.00
2024-04-06T08:02:52.040Z,95438.00
2024-04-06T08:03:52.067Z,95438.00
2024-04-06T08:04:52.070Z,95440.00
2024-04-06T08:05:52.074Z,95438.00
2024-04-06T08:06:52.067Z,95436.00
2024-04-06T08:07:52.069Z,95437.00
2024-04-06T08:08:52.059Z,95433.00
2024-04-06T08:09:52.089Z,95431.00
2024-04-06T08:10:52.050Z,95428.00
2024-04-06T08:11:52.100Z,95428.00
2024-04-06T08:12:52.055Z,95426.00
2024-04-06T08:13:52.054Z,95425.00
2024-04-06T08:14:52.067Z,95425.00
2024-04-06T08:15:52.153Z,95424.00
2024-04-06T08:16:52.083Z,95424.00
2024-04-06T08:17:52.050Z,95421.00
2024-04-06T08:18:52.102Z,95420.00
2024-04-06T08:19:52.066Z,95420.00
2024-04-06T08:20:52.064Z,95414.00
2024-04-06T08:21:52.076Z,95413.00
2024-04-06T08:22:52.068Z,95411.00
2024-04-06T08:23:52.078Z,95410.00
2024-04-06T08:24:52.108Z,95407.00
2024-04-06T08:25:52.072Z,95406.00
2024-04-06T08:26:52.068Z,95406.00
2024-04-06T08:27:52.081Z,95405.00
2024-04-06T08:28:52.090Z,95404.00
2024-04-06T08:29:52.123Z,95399.00
2024-04-06T08:30:52.127Z,95397.00
2024-04-06T08:31:52.110Z,95397.00
2024-04-06T08:32:52.089Z,95395.00
2024-04-06T08:33:52.093Z,95391.00
2024-04-06T08:34:52.100Z,95392.00
2024-04-06T08:35:52.121Z,95393.00
2024-04-06T08:36:52.113Z,95390.00
2024-04-06T08:37:52.167Z,95389.00
2024-04-06T08:38:52.292Z,95388.00
2024-04-06T08:39:52.355Z,95389.00
2024-04-06T08:40:52.508Z,95386.00
2024-04-06T08:41:52.558Z,95388.00
2024-04-06T08:42:52.662Z,95388.00
2024-04-06T08:43:52.771Z,95386.00
2024-04-06T08:44:52.889Z,95387.00
2024-04-06T08:45:52.977Z,95385.00
2024-04-06T08:46:53.102Z,95384.00
2024-04-06T08:47:53.170Z,95382.00
2024-04-06T08:48:53.269Z,95380.00
2024-04-06T08:49:53.439Z,95378.00
2024-04-06T08:50:53.506Z,95377.00
2024-04-06T08:51:53.602Z,95376.00
2024-04-06T08:52:53.701Z,95374.00
2024-04-06T08:53:53.815Z,95374.00
2024-04-06T08:54:53.899Z,95372.00
2024-04-06T08:55:54.005Z,95372.00
2024-04-06T08:56:54.096Z,95370.00
2024-04-06T08:57:54.226Z,95370.00
2024-04-06T08:58:54.310Z,95369.00
2024-04-06T08:59:54.414Z,95366.00
2024-04-06T09:00:54.532Z,95368.00
2024-04-06T09:01:54.586Z,95362.00
2024-04-06T09:02:54.750Z,95361.00
2024-04-06T09:03:54.806Z,95361.00
2024-04-06T09:04:54.916Z,95359.00
2024-04-06T09:05:55.035Z,95360.00
2024-04-06T09:06:55.098Z,95356.00
2024-04-06T09:07:55.250Z,95356.00
2024-04-06T09:08:55.294Z,95357.00
2024-04-06T09:09:55.364Z,95353.00
2024-04-06T09:10:55.514Z,95351.00
2024-04-06T09:11:55.586Z,95350.00
2024-04-06T09:12:55.679Z,95346.00
2024-04-06T09:13:55.803Z,95346.00
2024-04-06T09:14:55.908Z,95342.00
2024-04-06T09:15:56.004Z,95342.00
2024-04-06T09:16:56.074Z,95342.00
2024-04-06T09:17:56.182Z,95340.00
2024-04-06T09:18:56.291Z,95337.00
2024-04-06T09:19:56.378Z,95336.00
2024-04-06T09:20:56.577Z,95332.00
2024-04-06T09:21:56.622Z,95333.00
2024-04-06T09:22:56.667Z,95331.00
2024-04-06T09:23:56.933Z,95330.00
2024-04-06T09:24:56.868Z,95328.00
2024-04-06T09:25:57.002Z,95328.00
2024-04-06T09:26:57.080Z,95327.00
2024-04-06T09:27:57.173Z,95324.00
2024-04-06T09:28:57.260Z,95324.00
2024-04-06T09:29:57.381Z,95324.00
2024-04-06T09:30:57.491Z,95319.00
2024-04-06T09:31:57.609Z,95316.00
2024-04-06T09:32:57.714Z,95314.00
2024-04-06T09:33:57.799Z,95312.00
2024-04-06T09:34:57.883Z,95312.00
2024-04-06T09:35:57.994Z,95309.00
2024-04-06T09:36:58.099Z,95308.00
2024-04-06T09:37:58.214Z,95305.00
2024-04-06T09:38:58.324Z,95305.00
2024-04-06T09:39:58.436Z,95305.00
2024-04-06T09:40:58.526Z,95307.00
2024-04-06T09:41:58.611Z,95306.00
2024-04-06T09:42:58.756Z,95306.00
2024-04-06T09:43:58.836Z,95305.00
2024-04-06T09:44:58.928Z,95303.00
2024-04-06T09:45:59.039Z,95302.00
2024-04-06T09:46:59.119Z,95300.00
2024-04-06T09:47:59.237Z,95300.00
2024-04-06T09:48:59.357Z,95299.00
2024-04-06T09:49:59.418Z,95295.00
2024-04-06T09:50:59.528Z,95295.00
2024-04-06T09:51:59.629Z,95292.00
2024-04-06T09:53:00.721Z,95290.00
2024-04-06T09:53:59.856Z,95288.00
2024-04-06T09:55:00.130Z,95286.00
2024-04-06T09:56:00.174Z,95284.00
2024-04-06T09:57:00.173Z,95283.00
2024-04-06T09:58:00.284Z,95280.00
2024-04-06T09:59:00.409Z,95279.00
2024-04-06T10:00:00.519Z,95277.00
2024-04-06T10:01:00.613Z,95277.00
2024-04-06T10:02:00.777Z,95276.00
2024-04-06T10:03:00.863Z,95277.00
2024-04-06T10:04:00.902Z,95271.00
2024-04-06T10:05:01.054Z,95272.00
2024-04-06T10:06:01.137Z,95272.00
2024-04-06T10:07:01.250Z,95266.00
2024-04-06T10:08:01.380Z,95264.00
2024-04-06T10:09:01.489Z,95265.00
2024-04-06T10:10:01.559Z,95260.00
2024-04-06T10:11:01.706Z,95261.00
2024-04-06T10:12:02.732Z,95258.00
2024-04-06T10:13:01.859Z,95254.00
2024-04-06T10:14:01.986Z,95250.00
2024-04-06T10:15:02.078Z,95246.00
2024-04-06T10:16:02.181Z,95244.00
2024-04-06T10:17:02.287Z,95241.00
2024-04-06T10:18:02.418Z,95241.00
2024-04-06T10:19:02.523Z,95242.00
2024-04-06T10:20:02.656Z,95240.00
2024-04-06T10:21:02.752Z,95241.00
2024-04-06T10:22:02.811Z,95239.00
2024-04-06T10:23:02.919Z,95236.00
2024-04-06T10:24:03.023Z,95235.00
2024-04-06T10:25:03.147Z,95236.00
2024-04-06T10:26:03.247Z,95235.00
2024-04-06T10:27:03.352Z,95232.00
2024-04-06T10:28:03.481Z,95231.00
2024-04-06T10:29:03.563Z,95229.00
2024-04-06T10:30:03.676Z,95228.00
2024-04-06T10:31:03.792Z,95229.00
2024-04-06T10:32:03.898Z,95227.00
2024-04-06T10:33:04.003Z,95226.00
2024-04-06T10:34:04.092Z,95227.00
2024-04-06T10:35:04.225Z,95225.00
2024-04-06T10:36:04.339Z,95225.00
2024-04-06T10:37:04.405Z,95229.00
2024-04-06T10:38:04.554Z,95227.00
2024-04-06T10:39:04.676Z,95228.00
2024-04-06T10:40:04.697Z,95225.00
2024-04-06T10:41:04.911Z,95225.00
2024-04-06T10:42:04.920Z,95224.00
2024-04-06T10:43:07.129Z,95221.00
2024-04-06T10:44:05.099Z,95223.00
2024-04-06T10:45:05.141Z,95220.00
2024-04-06T10:46:05.312Z,95218.00
2024-04-06T10:47:05.338Z,95219.00
2024-04-06T10:48:05.439Z,95215.00
2024-04-06T10:49:06.880Z,95216.00
2024-04-06T10:50:05.611Z,95216.00
2024-04-06T10:51:05.663Z,95215.00
2024-04-06T10:52:05.680Z,95210.00
2024-04-06T10:53:05.718Z,95210.00
2024-04-06T10:54:05.787Z,95205.00
2024-04-06T10:55:05.809Z,95202.00
2024-04-06T10:56:05.917Z,95201.00
2024-04-06T10:57:06.014Z,95202.00
2024-04-06T10:58:06.091Z,95200.00
2024-04-06T10:59:06.167Z,95203.00
2024-04-06T11:00:06.279Z,95199.00
2024-04-06T11:01:06.410Z,95199.00
2024-04-06T11:02:06.494Z,95198.00
2024-04-06T11:03:06.637Z,95195.00
2024-04-06T11:04:06.725Z,95196.00
2024-04-06T11:05:06.861Z,95191.00
2024-04-06T11:06:06.890Z,95190.00
2024-04-06T11:07:06.999Z,95186.00
2024-04-06T11:08:07.093Z,95182.00
2024-04-06T11:09:07.226Z,95181.00
2024-04-06T11:10:07.318Z,95179.00
2024-04-06T11:11:07.436Z,95174.00
2024-04-06T11:12:07.521Z,95174.00
2024-04-06T11:13:07.584Z,95174.00
2024-04-06T11:14:07.702Z,95174.00
2024-04-06T11:15:07.795Z,95175.00
2024-04-06T11:16:07.892Z,95174.00
2024-04-06T11:17:07.990Z,95174.00
2024-04-06T11:18:08.104Z,95175.00
2024-04-06T11:19:08.167Z,95175.00
2024-04-06T11:20:08.294Z,95173.00
2024-04-06T11:21:08.408Z,95175.00
2024-04-06T11:22:08.472Z,95173.00
2024-04-06T11:23:08.583Z,95171.00
2024-04-06T11:24:08.699Z,95170.00
2024-04-06T11:25:08.776Z,95167.00
2024-04-06T11:26:08.914Z,95168.00
2024-04-06T11:27:08.977Z,95163.00
2024-04-06T11:28:09.085Z,95164.00
2024-04-06T11:29:09.187Z,95163.00
2024-04-06T11:30:09.313Z,95160.00
2024-04-06T11:31:09.425Z,95161.00
2024-04-06T11:32:09.512Z,95161.00
2024-04-06T11:33:09.651Z,95162.00
2024-04-06T11:34:09.695Z,95160.00
2024-04-06T11:35:09.801Z,95160.00
2024-04-06T11:36:09.936Z,95156.00
2024-04-06T11:37:10.005Z,95157.00
2024-04-06T11:38:10.124Z,95157.00
2024-04-06T11:39:10.235Z,95155.00
2024-04-06T11:40:10.351Z,95156.00
2024-04-06T11:41:10.478Z,95154.00
2024-04-06T11:42:10.529Z,95155.00
2024-04-06T11:43:10.622Z,95156.00
2024-04-06T11:44:10.740Z,95150.00
2024-04-06T11:45:10.822Z,95151.00
2024-04-06T11:46:10.933Z,95152.00
2024-04-06T11:47:11.179Z,95151.00
2024-04-06T11:48:11.175Z,95150.00
2024-04-06T11:49:11.280Z,95151.00
2024-04-06T11:50:11.337Z,95149.00
2024-04-06T11:51:11.448Z,95149.00
2024-04-06T11:52:11.551Z,95147.00